Nearby METAR Reports

 

KCOE - Coeur D'alene, Idaho, USA
Distance from station: SSE 4mi, 7km
Updated: Wed, 21-Feb-2018 6:56am PST
Freezing fog, Overcast
Freezing fog, Overcast
 Wind from calm
Wind: Calm
Temperature: -4°F , -20°C
Dew Point: -8°F , -22°C
Humidity: 84%
Barometer: 30.25 inHg , 1024.4 hPa
Summary: Freezing Fog
Clouds: Overcast
Visibility: 1/4 mile , 2 km
Cloud details: Overcast 200 ft
2018/02/21 14:56 KCOE 211456Z AUTO 00000KT 1/4SM FZFG OVC002 M20/M22 A3025 RMK AO2 SNE06 SLP315 P0000 60000 T12001222 53003 FZRANO
KSFF - Spokane/Felts, Washington, USA
Distance from station: WSW 24mi, 39km
Updated: Wed, 21-Feb-2018 7:06am PST
Mostly cloudy
Mostly cloudy
 Wind from calm
Wind: Calm
Temperature: 5°F , -15°C
Dew Point: 1°F , -17°C
Humidity: 85%
Barometer: 30.29 inHg , 1025.7 hPa
Clouds: Mostly cloudy
Visibility: 9 miles , 14 km
Cloud details: Mostly cloudy 500 ft
2018/02/21 15:06 KSFF 211506Z 00000KT 9SM BKN005 M15/M17 A3029 RMK AO2 T11501167
 
KDEW - Deer Park, Washington, USA
Distance from station: WNW 29mi, 47km
Updated: Wed, 21-Feb-2018 6:53am PST
Clear
Clear
 Wind from calm
Wind: Calm
Temperature: -13°F , -25°C
Dew Point: -18°F , -28°C
Humidity: 76%
Barometer: 30.26 inHg , 1024.7 hPa
Clouds: Clear
Visibility: 10 miles , 16 km
2018/02/21 14:53 KDEW 211453Z AUTO 00000KT 10SM CLR M25/M28 A3026 RMK AO2 SLP302 T12501278 51005
KSZT - Wall/Sandpoint, Idaho, USA
Distance from station: NNE 35mi, 56km
Updated: Wed, 21-Feb-2018 6:55am PST

 Wind from calm
Wind: Calm
Temperature: 5°F , -15°C
Dew Point: 3°F , -16°C
Humidity: 92%
Barometer: 30.27 inHg , 1025.1 hPa
Visibility: 10 miles , 16 km
2018/02/21 14:55 KSZT 211455Z AUTO 00000KT 10SM M15/M16 A3027 RMK AO2
 
KGEG - Spokane/Metro, Washington, USA
Distance from station: WSW 35mi, 57km
Updated: Wed, 21-Feb-2018 6:53am PST
Few Clouds
Few Clouds
 Wind from calm
Wind: Calm
Temperature: 3°F , -16°C
Dew Point: 1°F , -17°C
Humidity: 92%
Barometer: 30.23 inHg , 1023.7 hPa
Clouds: Few Clouds
Visibility: 10 miles , 16 km
Cloud details: Few Clouds 500 ft
Few Clouds 10000 ft
2018/02/21 14:53 KGEG 211453Z 00000KT 10SM FEW005 FEW100 M16/M17 A3023 RMK AO2 SLP284 FU FEW005 I1000 I3000 T11561172 51003
KSKA - Fairchild Afb, Washington, USA
Distance from station: WSW 40mi, 65km
Updated: Wed, 21-Feb-2018 7:06am PST
Mist, Partly cloudy
Mist, Partly cloudy
 Wind from calm
Wind: Calm
Temperature: 3°F , -16°C
Dew Point: 1°F , -17°C
Humidity: 92%
Barometer: 30.22 inHg , 1023.4 hPa
Summary: Mist
Clouds: Partly cloudy
Visibility: 1 mile , 2 km
Cloud details: Partly cloudy 100 ft
2018/02/21 15:06 KSKA 211506Z 00000KT 1SM R23/1800FT BR SCT001 M16/M17 A3022 RMK AO2A VIS 1/8 RWY05/23 VIS 1/8 RWY23 SLP285 $